sensor_id;sensor_type;location;lat;lon;timestamp;P1;durP1;ratioP1;P2;durP2;ratioP2
41966;SDS011;27656;53.068;8.818;2023-05-10T16:17:00;3.13;;;1.80;;
41966;SDS011;27656;53.068;8.818;2023-05-10T16:19:28;3.33;;;1.50;;
41966;SDS011;27656;53.068;8.818;2023-05-10T16:21:57;2.17;;;1.80;;
41966;SDS011;27656;53.068;8.818;2023-05-10T16:24:24;2.63;;;1.50;;
41966;SDS011;27656;53.068;8.818;2023-05-10T16:26:51;2.50;;;1.73;;
41966;SDS011;27656;53.068;8.818;2023-05-10T16:29:17;3.17;;;1.47;;
41966;SDS011;27656;53.068;8.818;2023-05-10T16:31:43;2.17;;;1.60;;
41966;SDS011;27656;53.068;8.818;2023-05-10T16:34:10;2.40;;;1.87;;
41966;SDS011;27656;53.068;8.818;2023-05-10T16:36:36;2.43;;;1.77;;
41966;SDS011;27656;53.068;8.818;2023-05-10T16:39:03;2.20;;;1.47;;
41966;SDS011;27656;53.068;8.818;2023-05-10T16:41:32;1.97;;;1.77;;
41966;SDS011;27656;53.068;8.818;2023-05-10T16:43:59;3.50;;;1.60;;
41966;SDS011;27656;53.068;8.818;2023-05-10T16:46:26;4.67;;;1.63;;
41966;SDS011;27656;53.068;8.818;2023-05-10T16:48:53;3.97;;;1.70;;
41966;SDS011;27656;53.068;8.818;2023-05-10T16:51:19;5.80;;;2.63;;
41966;SDS011;27656;53.068;8.818;2023-05-10T16:53:46;6.00;;;2.10;;
41966;SDS011;27656;53.068;8.818;2023-05-10T16:56:12;3.50;;;2.50;;
41966;SDS011;27656;53.068;8.818;2023-05-10T16:58:39;3.17;;;1.67;;
41966;SDS011;27656;53.068;8.818;2023-05-10T17:01:05;5.00;;;1.80;;
41966;SDS011;27656;53.068;8.818;2023-05-10T17:03:32;2.00;;;1.43;;
41966;SDS011;27656;53.068;8.818;2023-05-10T17:05:59;5.53;;;2.30;;
41966;SDS011;27656;53.068;8.818;2023-05-10T17:08:26;2.60;;;2.30;;
41966;SDS011;27656;53.068;8.818;2023-05-10T17:10:52;2.53;;;1.90;;
41966;SDS011;27656;53.068;8.818;2023-05-10T17:13:18;4.27;;;2.30;;
41966;SDS011;27656;53.068;8.818;2023-05-10T17:15:45;3.03;;;1.87;;
41966;SDS011;27656;53.068;8.818;2023-05-10T17:18:12;7.13;;;4.80;;
41966;SDS011;27656;53.068;8.818;2023-05-10T17:20:39;7.03;;;3.43;;
41966;SDS011;27656;53.068;8.818;2023-05-10T17:23:05;3.43;;;2.43;;
41966;SDS011;27656;53.068;8.818;2023-05-10T17:25:33;5.80;;;3.17;;
41966;SDS011;27656;53.068;8.818;2023-05-10T17:28:00;4.17;;;3.00;;
41966;SDS011;27656;53.068;8.818;2023-05-10T17:30:27;3.90;;;3.07;;
41966;SDS011;27656;53.068;8.818;2023-05-10T17:32:56;4.07;;;3.17;;
41966;SDS011;27656;53.068;8.818;2023-05-10T17:35:22;3.43;;;2.70;;
41966;SDS011;27656;53.068;8.818;2023-05-10T17:37:49;4.33;;;3.17;;
41966;SDS011;27656;53.068;8.818;2023-05-10T17:40:16;5.07;;;3.50;;
41966;SDS011;27656;53.068;8.818;2023-05-10T17:42:43;7.57;;;2.90;;
41966;SDS011;27656;53.068;8.818;2023-05-10T17:45:09;6.43;;;3.73;;
41966;SDS011;27656;53.068;8.818;2023-05-10T17:47:36;4.80;;;3.10;;
41966;SDS011;27656;53.068;8.818;2023-05-10T17:50:04;3.07;;;2.40;;
41966;SDS011;27656;53.068;8.818;2023-05-10T17:52:30;6.63;;;2.80;;
41966;SDS011;27656;53.068;8.818;2023-05-10T17:54:58;3.80;;;2.60;;
41966;SDS011;27656;53.068;8.818;2023-05-10T17:57:25;4.17;;;2.67;;
41966;SDS011;27656;53.068;8.818;2023-05-10T17:59:51;3.87;;;2.50;;
41966;SDS011;27656;53.068;8.818;2023-05-10T18:02:18;6.27;;;2.60;;
41966;SDS011;27656;53.068;8.818;2023-05-10T18:04:44;3.40;;;2.40;;
41966;SDS011;27656;53.068;8.818;2023-05-10T18:07:11;4.47;;;2.63;;
41966;SDS011;27656;53.068;8.818;2023-05-10T18:09:37;4.77;;;2.13;;
41966;SDS011;27656;53.068;8.818;2023-05-10T18:12:04;3.17;;;2.87;;
41966;SDS011;27656;53.068;8.818;2023-05-10T18:14:31;5.27;;;2.97;;
41966;SDS011;27656;53.068;8.818;2023-05-10T18:17:06;3.93;;;3.03;;
41966;SDS011;27656;53.068;8.818;2023-05-10T18:19:33;5.03;;;2.73;;
41966;SDS011;27656;53.068;8.818;2023-05-10T18:21:59;3.20;;;2.70;;
41966;SDS011;27656;53.068;8.818;2023-05-10T18:24:26;3.27;;;2.70;;
41966;SDS011;27656;53.068;8.818;2023-05-10T18:27:04;5.00;;;2.73;;
41966;SDS011;27656;53.068;8.818;2023-05-10T18:29:31;4.40;;;2.63;;
41966;SDS011;27656;53.068;8.818;2023-05-10T18:31:58;6.77;;;2.90;;
41966;SDS011;27656;53.068;8.818;2023-05-10T18:34:24;4.47;;;2.67;;
41966;SDS011;27656;53.068;8.818;2023-05-10T18:36:51;3.77;;;2.90;;
41966;SDS011;27656;53.068;8.818;2023-05-10T18:39:18;5.30;;;2.80;;
41966;SDS011;27656;53.068;8.818;2023-05-10T18:41:44;3.47;;;2.40;;
41966;SDS011;27656;53.068;8.818;2023-05-10T18:44:11;3.97;;;2.40;;
41966;SDS011;27656;53.068;8.818;2023-05-10T18:46:37;2.83;;;2.30;;
41966;SDS011;27656;53.068;8.818;2023-05-10T18:49:04;3.33;;;2.10;;
41966;SDS011;27656;53.068;8.818;2023-05-10T18:51:31;4.37;;;2.77;;
41966;SDS011;27656;53.068;8.818;2023-05-10T18:53:58;4.30;;;2.90;;
41966;SDS011;27656;53.068;8.818;2023-05-10T18:56:24;4.10;;;3.00;;
41966;SDS011;27656;53.068;8.818;2023-05-10T18:58:51;4.57;;;2.77;;
41966;SDS011;27656;53.068;8.818;2023-05-10T19:01:17;4.13;;;3.10;;
41966;SDS011;27656;53.068;8.818;2023-05-10T19:03:44;4.70;;;3.37;;
41966;SDS011;27656;53.068;8.818;2023-05-10T19:06:10;4.60;;;3.60;;
41966;SDS011;27656;53.068;8.818;2023-05-10T19:08:37;5.47;;;3.20;;
41966;SDS011;27656;53.068;8.818;2023-05-10T19:11:03;6.57;;;2.90;;
41966;SDS011;27656;53.068;8.818;2023-05-10T19:13:30;4.73;;;2.43;;
41966;SDS011;27656;53.068;8.818;2023-05-10T19:16:01;2.60;;;2.20;;
41966;SDS011;27656;53.068;8.818;2023-05-10T19:18:31;3.93;;;2.40;;
41966;SDS011;27656;53.068;8.818;2023-05-10T19:20:58;2.83;;;2.50;;
41966;SDS011;27656;53.068;8.818;2023-05-10T19:23:30;4.87;;;2.53;;
41966;SDS011;27656;53.068;8.818;2023-05-10T19:25:57;4.67;;;2.63;;
41966;SDS011;27656;53.068;8.818;2023-05-10T19:28:26;5.17;;;2.70;;
41966;SDS011;27656;53.068;8.818;2023-05-10T19:30:53;3.27;;;2.33;;
41966;SDS011;27656;53.068;8.818;2023-05-10T19:33:19;5.30;;;3.40;;
41966;SDS011;27656;53.068;8.818;2023-05-10T19:35:46;3.43;;;2.77;;
41966;SDS011;27656;53.068;8.818;2023-05-10T19:38:14;4.00;;;2.90;;
41966;SDS011;27656;53.068;8.818;2023-05-10T19:40:41;3.17;;;2.50;;
41966;SDS011;27656;53.068;8.818;2023-05-10T19:43:07;4.47;;;2.67;;
41966;SDS011;27656;53.068;8.818;2023-05-10T19:45:34;3.87;;;2.67;;
41966;SDS011;27656;53.068;8.818;2023-05-10T19:48:02;4.83;;;2.90;;
41966;SDS011;27656;53.068;8.818;2023-05-10T19:50:28;4.70;;;2.73;;
41966;SDS011;27656;53.068;8.818;2023-05-10T19:52:55;3.70;;;2.73;;
41966;SDS011;27656;53.068;8.818;2023-05-10T19:55:27;5.03;;;2.50;;
41966;SDS011;27656;53.068;8.818;2023-05-10T19:57:56;4.90;;;2.83;;
41966;SDS011;27656;53.068;8.818;2023-05-10T20:00:23;4.23;;;3.00;;
41966;SDS011;27656;53.068;8.818;2023-05-10T20:02:50;5.90;;;3.00;;
41966;SDS011;27656;53.068;8.818;2023-05-10T20:05:16;6.37;;;2.80;;
41966;SDS011;27656;53.068;8.818;2023-05-10T20:07:43;3.67;;;2.80;;
41966;SDS011;27656;53.068;8.818;2023-05-10T20:10:10;5.73;;;3.03;;
41966;SDS011;27656;53.068;8.818;2023-05-10T20:12:36;4.30;;;2.90;;
41966;SDS011;27656;53.068;8.818;2023-05-10T20:15:04;5.00;;;2.93;;
41966;SDS011;27656;53.068;8.818;2023-05-10T20:17:32;6.37;;;3.73;;
41966;SDS011;27656;53.068;8.818;2023-05-10T20:19:58;5.33;;;3.23;;
41966;SDS011;27656;53.068;8.818;2023-05-10T20:22:24;5.43;;;3.13;;
41966;SDS011;27656;53.068;8.818;2023-05-10T20:24:51;4.50;;;2.97;;
41966;SDS011;27656;53.068;8.818;2023-05-10T20:27:21;5.87;;;3.70;;
41966;SDS011;27656;53.068;8.818;2023-05-10T20:29:47;5.73;;;3.80;;
41966;SDS011;27656;53.068;8.818;2023-05-10T20:32:14;8.00;;;3.60;;
41966;SDS011;27656;53.068;8.818;2023-05-10T20:34:40;6.47;;;3.60;;
41966;SDS011;27656;53.068;8.818;2023-05-10T20:37:06;6.23;;;3.90;;
41966;SDS011;27656;53.068;8.818;2023-05-10T20:39:33;6.67;;;3.83;;
41966;SDS011;27656;53.068;8.818;2023-05-10T20:41:59;13.53;;;4.40;;
41966;SDS011;27656;53.068;8.818;2023-05-10T20:44:26;4.90;;;4.07;;
41966;SDS011;27656;53.068;8.818;2023-05-10T20:46:52;5.00;;;3.80;;
41966;SDS011;27656;53.068;8.818;2023-05-10T20:49:18;8.57;;;5.00;;
41966;SDS011;27656;53.068;8.818;2023-05-10T20:51:45;6.20;;;4.40;;
41966;SDS011;27656;53.068;8.818;2023-05-10T20:54:13;10.70;;;4.30;;
41966;SDS011;27656;53.068;8.818;2023-05-10T20:56:39;7.27;;;4.50;;
41966;SDS011;27656;53.068;8.818;2023-05-10T20:59:06;7.37;;;4.50;;
41966;SDS011;27656;53.068;8.818;2023-05-10T21:01:32;7.53;;;4.83;;
41966;SDS011;27656;53.068;8.818;2023-05-10T21:03:58;5.37;;;4.03;;
41966;SDS011;27656;53.068;8.818;2023-05-10T21:06:25;6.03;;;4.10;;
41966;SDS011;27656;53.068;8.818;2023-05-10T21:08:51;8.80;;;5.17;;
41966;SDS011;27656;53.068;8.818;2023-05-10T21:11:18;8.07;;;5.07;;
41966;SDS011;27656;53.068;8.818;2023-05-10T21:13:44;6.47;;;4.90;;
41966;SDS011;27656;53.068;8.818;2023-05-10T21:16:10;6.80;;;5.10;;
41966;SDS011;27656;53.068;8.818;2023-05-10T21:18:37;7.20;;;5.27;;
41966;SDS011;27656;53.068;8.818;2023-05-10T21:21:03;7.77;;;5.43;;
41966;SDS011;27656;53.068;8.818;2023-05-10T21:23:30;11.80;;;5.70;;
41966;SDS011;27656;53.068;8.818;2023-05-10T21:26:01;8.47;;;5.03;;
41966;SDS011;27656;53.068;8.818;2023-05-10T21:28:27;6.47;;;4.80;;
41966;SDS011;27656;53.068;8.818;2023-05-10T21:30:54;7.77;;;4.53;;
41966;SDS011;27656;53.068;8.818;2023-05-10T21:33:21;7.77;;;5.57;;
41966;SDS011;27656;53.068;8.818;2023-05-10T21:35:47;8.20;;;5.47;;
41966;SDS011;27656;53.068;8.818;2023-05-10T21:38:14;12.93;;;5.77;;
41966;SDS011;27656;53.068;8.818;2023-05-10T21:40:40;7.43;;;4.43;;
41966;SDS011;27656;53.068;8.818;2023-05-10T21:43:07;7.33;;;4.93;;
41966;SDS011;27656;53.068;8.818;2023-05-10T21:45:33;7.60;;;5.37;;
41966;SDS011;27656;53.068;8.818;2023-05-10T21:48:01;9.00;;;5.80;;
41966;SDS011;27656;53.068;8.818;2023-05-10T21:50:28;9.10;;;4.90;;
41966;SDS011;27656;53.068;8.818;2023-05-10T21:52:54;9.30;;;5.70;;
41966;SDS011;27656;53.068;8.818;2023-05-10T21:55:21;7.37;;;5.40;;
41966;SDS011;27656;53.068;8.818;2023-05-10T21:57:48;8.50;;;5.50;;
41966;SDS011;27656;53.068;8.818;2023-05-10T22:00:15;10.63;;;6.07;;
41966;SDS011;27656;53.068;8.818;2023-05-10T22:02:42;8.80;;;5.73;;
41966;SDS011;27656;53.068;8.818;2023-05-10T22:05:09;8.70;;;6.00;;
41966;SDS011;27656;53.068;8.818;2023-05-10T22:07:35;10.33;;;6.63;;
41966;SDS011;27656;53.068;8.818;2023-05-10T22:10:02;11.97;;;6.63;;
41966;SDS011;27656;53.068;8.818;2023-05-10T22:12:29;10.47;;;6.00;;
41966;SDS011;27656;53.068;8.818;2023-05-10T22:14:55;7.10;;;5.40;;
41966;SDS011;27656;53.068;8.818;2023-05-10T22:17:36;5.97;;;5.03;;
41966;SDS011;27656;53.068;8.818;2023-05-10T22:20:06;7.40;;;5.10;;
41966;SDS011;27656;53.068;8.818;2023-05-10T22:22:33;9.97;;;6.07;;
41966;SDS011;27656;53.068;8.818;2023-05-10T22:25:00;10.87;;;6.07;;
41966;SDS011;27656;53.068;8.818;2023-05-10T22:27:26;8.30;;;5.73;;
41966;SDS011;27656;53.068;8.818;2023-05-10T22:29:52;8.80;;;5.93;;
41966;SDS011;27656;53.068;8.818;2023-05-10T22:32:19;10.13;;;6.00;;
41966;SDS011;27656;53.068;8.818;2023-05-10T22:34:45;7.60;;;5.53;;
41966;SDS011;27656;53.068;8.818;2023-05-10T22:37:12;10.07;;;6.93;;
41966;SDS011;27656;53.068;8.818;2023-05-10T22:39:45;10.47;;;6.60;;
41966;SDS011;27656;53.068;8.818;2023-05-10T22:42:12;11.80;;;7.03;;
41966;SDS011;27656;53.068;8.818;2023-05-10T22:44:38;8.43;;;5.87;;
41966;SDS011;27656;53.068;8.818;2023-05-10T22:47:05;8.03;;;5.40;;
41966;SDS011;27656;53.068;8.818;2023-05-10T22:49:33;10.63;;;6.93;;
41966;SDS011;27656;53.068;8.818;2023-05-10T22:51:59;7.00;;;5.30;;
41966;SDS011;27656;53.068;8.818;2023-05-10T22:54:26;11.17;;;7.00;;
41966;SDS011;27656;53.068;8.818;2023-05-10T22:56:52;14.00;;;8.50;;
41966;SDS011;27656;53.068;8.818;2023-05-10T22:59:19;13.50;;;8.23;;
41966;SDS011;27656;53.068;8.818;2023-05-10T23:01:46;11.37;;;7.63;;
41966;SDS011;27656;53.068;8.818;2023-05-10T23:04:14;11.80;;;8.43;;
41966;SDS011;27656;53.068;8.818;2023-05-10T23:06:40;12.67;;;8.43;;
41966;SDS011;27656;53.068;8.818;2023-05-10T23:09:07;12.27;;;8.80;;
41966;SDS011;27656;53.068;8.818;2023-05-10T23:11:34;12.37;;;8.73;;
41966;SDS011;27656;53.068;8.818;2023-05-10T23:14:00;13.77;;;8.47;;
41966;SDS011;27656;53.068;8.818;2023-05-10T23:16:27;16.47;;;9.17;;
41966;SDS011;27656;53.068;8.818;2023-05-10T23:18:53;12.97;;;9.63;;
41966;SDS011;27656;53.068;8.818;2023-05-10T23:21:20;16.03;;;9.97;;
41966;SDS011;27656;53.068;8.818;2023-05-10T23:23:46;15.10;;;9.57;;
41966;SDS011;27656;53.068;8.818;2023-05-10T23:26:13;16.03;;;9.47;;
41966;SDS011;27656;53.068;8.818;2023-05-10T23:28:40;13.60;;;9.37;;
41966;SDS011;27656;53.068;8.818;2023-05-10T23:31:06;15.50;;;9.43;;
41966;SDS011;27656;53.068;8.818;2023-05-10T23:33:33;15.73;;;9.57;;
41966;SDS011;27656;53.068;8.818;2023-05-10T23:35:59;16.80;;;9.40;;
41966;SDS011;27656;53.068;8.818;2023-05-10T23:38:25;14.30;;;10.13;;
41966;SDS011;27656;53.068;8.818;2023-05-10T23:40:52;14.87;;;10.20;;
41966;SDS011;27656;53.068;8.818;2023-05-10T23:43:19;15.10;;;9.83;;
41966;SDS011;27656;53.068;8.818;2023-05-10T23:45:56;16.93;;;10.30;;
41966;SDS011;27656;53.068;8.818;2023-05-10T23:48:23;14.93;;;9.83;;
41966;SDS011;27656;53.068;8.818;2023-05-10T23:50:49;16.00;;;11.00;;
41966;SDS011;27656;53.068;8.818;2023-05-10T23:53:16;17.03;;;10.13;;
41966;SDS011;27656;53.068;8.818;2023-05-10T23:55:42;23.10;;;10.77;;
41966;SDS011;27656;53.068;8.818;2023-05-10T23:58:09;17.27;;;10.57;;
